Bow Street, United Kingdom
Current Conditions -  °F | °C
As of 7:50 PM on Thursday 20 Nov 2014 (Local Time) from EGOP Reporting Station
Broken Clouds Broken Clouds  
Wind Chill: 41°   Ceiling: 2100
Heat Index: 45°   Visibility: 5mi
Dew Point: 41°   Wind: 7mph
Humidity: 87%   Direction: 70°ENE
Pressure: 30.21"   Gusts: NA
Location:  52.44°N, 4.03°W
Report Text: EGOP 201950Z AUTO 07006KT 8000 // BKN021/// 07/05 Q1023
Loading
Personal Weather Stations






























Interactive Weather Map New forecast layout! Learn more

10-Day Weather Forecast

Advertisements
Track Severe Weather on mobile